March Air Reserve Base

Airport
ICAO code: 
KRIV
Summary
ICAO Region: 
NAM
Territory: 
Location: 
Riverside, California,
Coordinates: 
Aerial View: 
33° 53' 28.799" N, 117° 15' 49.946" W
Metar
Observation
KRIV 021358Z AUTO 00000KT 10SM CLR 05/M05 A3010 RMK AO2 SLP191 T00481048
Station
Riverside / March Air Force Base
Date/Time
2021-12-02 13:58:00
Wind direction
Wind speed
00 kts
Lowest cloud amount
n/a
Temperature
4.8°C
Dew point
-4.8°C
Humidity
49%
Weather condition
n/a

Description

March Air Reserve Base (ARB), previously known as March Air Force Base, is located in Riverside County, between the cities of Riverside and Moreno Valley, California.

Climatology

Mediterranean climate or Dry-Summer Subtropical (Köppen climate classification Csa) - Summers are warm to hot and dry. Winters are mild and somewhat rainy. Spring and autumn bring mild days with cool evenings and are generally dry.

Runways

Designator Length Width Surface Rops
12/30 917 30 ASP Yes/Yes
14/32 4054 61 CON Yes/Yes
Airport map: 
Aerial View: 

SKYbrary Partners:

Safety knowledge contributed by: